Time;durP1;ratioP1;P1;durP2;ratioP2;P2;SDS_P1;SDS_P2;PMS_P1;PMS_P2;Temp;Humidity;BMP_temperature;BMP_pressure;BME280_temperature;BME280_humidity;BME280_pressure;Samples;Min_cycle;Max_cycle;Signal;HPM_P1;HPM_P2
2024/02/23 05:47:10;;;;;;;;;;;;;;;2.97;100.00;100257.85;107307;1304;22545;-58
2024/02/23 05:50:19;;;;;;;;;;;;;;;3.00;100.00;100260.33;107247;1302;22638;-59
2024/02/23 05:53:54;;;;;;;;;;;;;;;3.04;100.00;100269.77;107182;1309;22506;-60
2024/02/23 05:56:21;;;;;;;;;;;;;;;3.07;100.00;100271.22;107086;1304;22503;-59
2024/02/23 05:58:49;;;;;;;;;;;;;;;3.08;100.00;100279.90;107309;1303;22530;-56
2024/02/23 06:01:17;;;;;;;;;;;;;;;3.10;100.00;100277.88;107082;1291;23251;-60
2024/02/23 06:03:45;;;;;;;;;;;;;;;3.11;100.00;100287.38;107218;1303;22504;-55
2024/02/23 06:06:12;;;;;;;;;;;;;;;3.13;100.00;100286.42;106970;1295;22488;-55
2024/02/23 06:08:40;;;;;;;;;;;;;;;3.14;100.00;100297.31;107006;1304;22481;-59
2024/02/23 06:11:09;;;;;;;;;;;;;;;3.15;100.00;100300.63;107158;1287;23293;-60
2024/02/23 06:13:36;;;;;;;;;;;;;;;3.19;100.00;100296.94;107233;1303;22521;-60
2024/02/23 06:16:04;;;;;;;;;;;;;;;3.21;100.00;100298.20;107066;1294;22493;-55
2024/02/23 06:18:31;;;;;;;;;;;;;;;3.23;100.00;100288.42;107031;1287;22556;-55
2024/02/23 06:20:59;;;;;;;;;;;;;;;3.24;100.00;100291.73;107070;1304;23035;-55
2024/02/23 06:45:25;;;;;;;;;;;;;;;3.47;100.00;100310.00;107593;1292;22640;-55
2024/02/23 06:48:34;;;;;;;;;;;;;;;3.48;100.00;100303.46;107077;1306;22503;-54
2024/02/23 06:51:23;;;;;;;;;;;;;;;3.50;100.00;100306.81;107089;1302;23224;-60
2024/02/23 06:54:08;;;;;;;;;;;;;;;3.51;100.00;100309.94;106911;1304;22494;-55
2024/02/23 06:57:25;;;;;;;;;;;;;;;3.52;100.00;100313.25;107072;1303;23075;-55
2024/02/23 07:00:16;;;;;;;;;;;;;;;3.55;100.00;100311.96;107027;1307;22534;-57
2024/02/23 07:03:26;;;;;;;;;;;;;;;3.59;100.00;100314.13;107031;1306;23464;-60
2024/02/23 07:06:10;;;;;;;;;;;;;;;3.64;100.00;100311.67;107232;1303;22622;-56
2024/02/23 07:08:44;;;;;;;;;;;;;;;3.68;100.00;100318.20;107058;1302;22509;-61
2024/02/23 07:11:31;;;;;;;;;;;;;;;3.73;100.00;100314.55;106954;1304;22474;-60
2024/02/23 07:14:18;;;;;;;;;;;;;;;3.80;100.00;100312.80;106948;1303;22499;-60
2024/02/23 07:21:10;;;;;;;;;;;;;;;3.90;100.00;100300.52;107211;1291;23103;-54
2024/02/23 07:23:44;;;;;;;;;;;;;;;3.91;100.00;100305.71;106809;1310;23498;-59
2024/02/23 07:30:06;;;;;;;;;;;;;;;3.98;100.00;100299.16;107016;1306;23731;-60
2024/02/23 07:32:55;;;;;;;;;;;;;;;4.01;100.00;100296.65;107138;1305;22513;-60
2024/02/23 07:35:23;;;;;;;;;;;;;;;4.04;100.00;100289.65;107100;1307;22506;-56
2024/02/23 07:38:25;;;;;;;;;;;;;;;4.08;100.00;100294.59;106998;1307;22500;-60
2024/02/23 07:41:13;;;;;;;;;;;;;;;4.11;100.00;100302.60;107050;1308;23299;-56
2024/02/23 07:43:49;;;;;;;;;;;;;;;4.14;100.00;100305.98;107029;1309;22616;-54
2024/02/23 07:46:22;;;;;;;;;;;;;;;4.17;100.00;100301.02;106995;1304;23500;-60
2024/02/23 07:49:00;;;;;;;;;;;;;;;4.19;100.00;100305.92;106974;1303;22506;-55
2024/02/23 07:51:31;;;;;;;;;;;;;;;4.21;100.00;100301.66;107040;1310;22529;-55
2024/02/23 07:54:02;;;;;;;;;;;;;;;4.23;100.00;100305.34;107090;1303;23335;-54
2024/02/23 07:56:43;;;;;;;;;;;;;;;4.25;100.00;100313.34;107236;1304;22464;-58
2024/02/23 08:00:42;;;;;;;;;;;;;;;4.30;100.00;100310.70;107182;1304;22564;-54
2024/02/23 08:03:16;;;;;;;;;;;;;;;4.34;100.00;100313.04;106908;1308;22509;-59
2024/02/23 08:06:12;;;;;;;;;;;;;;;4.39;100.00;100321.79;107073;1310;23183;-60
2024/02/23 08:08:58;;;;;;;;;;;;;;;4.42;100.00;100317.04;104123;1306;3749334;-59
2024/02/23 08:11:59;;;;;;;;;;;;;;;4.44;100.00;100311.58;106914;1308;22483;-59
2024/02/23 08:19:20;;;;;;;;;;;;;;;4.51;100.00;100330.21;106859;1310;22536;-56
2024/02/23 08:40:13;;;;;;;;;;;;;;;4.76;100.00;100325.48;106711;1306;23295;-55
2024/02/23 08:51:52;;;;;;;;;;;;;;;5.00;100.00;100307.38;107084;1300;23317;-58
2024/02/23 09:16:43;;;;;;;;;;;;;;;5.46;100.00;100324.28;107159;1306;22466;-60
2024/02/23 09:28:59;;;;;;;;;;;;;;;5.78;100.00;100320.95;107177;1290;22545;-55
2024/02/23 09:32:12;;;;;;;;;;;;;;;5.86;100.00;100319.55;106790;1303;22486;-54
2024/02/23 09:35:57;;;;;;;;;;;;;;;6.02;100.00;100324.58;106941;1304;22525;-58
2024/02/23 09:39:01;;;;;;;;;;;;;;;6.13;100.00;100325.81;106919;1311;23041;-57
2024/02/23 09:42:18;;;;;;;;;;;;;;;6.22;100.00;100328.04;107032;1307;22494;-59
2024/02/23 09:45:01;;;;;;;;;;;;;;;6.26;100.00;100316.16;106793;1306;22512;-59
2024/02/23 09:47:38;;;;;;;;;;;;;;;6.28;100.00;100308.59;106881;1306;22473;-53
2024/02/23 09:51:05;;;;;;;;;;;;;;;6.27;100.00;100319.50;106687;1306;22499;-56
2024/02/23 09:57:19;;;;;;;;;;;;;;;6.31;100.00;100315.22;106747;1305;22556;-55
2024/02/23 10:00:00;;;;;;;;;;;;;;;6.37;100.00;100311.52;106658;1307;22454;-59
2024/02/23 10:03:10;;;;;;;;;;;;;;;6.47;100.00;100312.20;106523;1305;23098;-61
2024/02/23 10:05:40;;;;;;;;;;;;;;;6.52;100.00;100311.77;106883;1306;22555;-55
2024/02/23 10:12:18;;;;;;;;;;;;;;;6.63;100.00;100316.81;106289;1309;22518;-55
2024/02/23 10:14:48;;;;;;;;;;;;;;;6.69;100.00;100311.36;106393;1312;22756;-62
2024/02/23 10:20:56;;;;;;;;;;;;;;;6.71;100.00;100310.51;106473;1310;22508;-56
2024/02/23 10:23:27;;;;;;;;;;;;;;;6.71;100.00;100306.70;106268;1310;22589;-56
2024/02/23 10:25:57;;;;;;;;;;;;;;;6.77;100.00;100301.43;106440;1309;22532;-60
2024/02/23 10:28:26;;;;;;;;;;;;;;;6.88;100.00;100308.01;106405;1310;22515;-62
2024/02/23 10:30:57;;;;;;;;;;;;;;;6.99;100.00;100302.09;106530;1315;22584;-60
2024/02/23 10:33:32;;;;;;;;;;;;;;;7.07;100.00;100293.89;106686;1309;22570;-56
2024/02/23 10:36:08;;;;;;;;;;;;;;;7.13;100.00;100292.93;106538;1309;22535;-61
2024/02/23 10:38:44;;;;;;;;;;;;;;;7.17;100.00;100291.95;106492;1309;22517;-60
2024/02/23 10:41:14;;;;;;;;;;;;;;;7.17;100.00;100302.35;106710;1309;22615;-60
2024/02/23 10:44:04;;;;;;;;;;;;;;;7.22;100.00;100307.28;106565;1309;22543;-56
2024/02/23 10:46:32;;;;;;;;;;;;;;;7.29;100.00;100311.20;106640;1310;22500;-62
2024/02/23 10:49:01;;;;;;;;;;;;;;;7.37;100.00;100305.59;106717;1308;23181;-61
2024/02/23 10:51:43;;;;;;;;;;;;;;;7.46;100.00;100306.21;106575;1308;22601;-55
2024/02/23 10:54:11;;;;;;;;;;;;;;;7.49;100.00;100303.31;106595;1309;22511;-59
2024/02/23 10:56:40;;;;;;;;;;;;;;;7.46;100.00;100308.64;106573;1310;22498;-62
2024/02/23 10:59:08;;;;;;;;;;;;;;;7.43;100.00;100300.46;106568;1315;22589;-59
2024/02/23 11:01:36;;;;;;;;;;;;;;;7.42;100.00;100305.13;106554;1312;22539;-62
2024/02/23 11:04:08;;;;;;;;;;;;;;;7.44;100.00;100310.02;106654;1309;22480;-60
2024/02/23 11:06:54;;;;;;;;;;;;;;;7.47;100.00;100309.70;106605;1316;22520;-55
2024/02/23 11:09:33;;;;;;;;;;;;;;;7.52;100.00;100312.02;106611;1309;23139;-55
2024/02/23 11:12:09;;;;;;;;;;;;;;;7.59;100.00;100314.37;106486;1309;22558;-55
2024/02/23 11:15:01;;;;;;;;;;;;;;;7.67;100.00;100306.65;106451;1309;22535;-58
2024/02/23 11:17:51;;;;;;;;;;;;;;;7.68;100.00;100301.63;106535;1312;22485;-54
2024/02/23 11:21:15;;;;;;;;;;;;;;;7.64;100.00;100301.39;106438;1310;23468;-49
2024/02/23 11:23:52;;;;;;;;;;;;;;;7.65;100.00;100293.27;106414;1308;22530;-54
2024/02/23 11:26:26;;;;;;;;;;;;;;;7.66;100.00;100305.09;106486;1310;22502;-55
2024/02/23 11:29:24;;;;;;;;;;;;;;;7.68;100.00;100307.70;106563;1306;22524;-59
2024/02/23 11:32:17;;;;;;;;;;;;;;;7.69;100.00;100301.64;106588;1312;23547;-51
2024/02/23 11:34:58;;;;;;;;;;;;;;;7.72;100.00;100305.50;106633;1308;23282;-49
2024/02/23 11:38:02;;;;;;;;;;;;;;;7.77;100.00;100296.70;106675;1312;22477;-51
2024/02/23 11:40:58;;;;;;;;;;;;;;;7.81;100.00;100301.61;106488;1313;22522;-59
2024/02/23 11:43:59;;;;;;;;;;;;;;;7.86;100.00;100306.34;106465;1309;22611;-56
2024/02/23 11:47:02;;;;;;;;;;;;;;;7.90;100.00;100309.00;106662;1312;22545;-52
2024/02/23 11:53:56;;;;;;;;;;;;;;;7.95;100.00;100301.95;107092;1306;22569;-49
2024/02/23 11:56:56;;;;;;;;;;;;;;;7.97;100.00;100301.60;107022;1306;23019;-58
2024/02/23 11:59:54;;;;;;;;;;;;;;;8.01;100.00;100307.39;106783;1306;22507;-55
2024/02/23 12:03:07;;;;;;;;;;;;;;;8.06;100.00;100300.65;107058;1300;22573;-61
2024/02/23 12:05:37;;;;;;;;;;;;;;;8.12;100.00;100297.42;106732;1308;22575;-51
2024/02/23 12:08:07;;;;;;;;;;;;;;;8.17;100.00;100301.63;106756;1304;22493;-55
2024/02/23 12:10:49;;;;;;;;;;;;;;;8.21;100.00;100294.73;106635;1306;22621;-56
2024/02/23 12:13:53;;;;;;;;;;;;;;;8.24;100.00;100302.92;106834;1307;22519;-56
2024/02/23 12:16:27;;;;;;;;;;;;;;;8.28;100.00;100301.91;106755;1306;22491;-58
2024/02/23 12:18:57;;;;;;;;;;;;;;;8.31;100.00;100301.08;106842;1304;22492;-59
2024/02/23 12:21:25;;;;;;;;;;;;;;;8.33;99.96;100290.83;107048;1304;22518;-49
2024/02/23 12:23:53;;;;;;;;;;;;;;;8.36;99.95;100287.06;107022;1306;23700;-49
2024/02/23 12:26:23;;;;;;;;;;;;;;;8.40;100.00;100292.84;106787;1311;22475;-51
2024/02/23 12:28:50;;;;;;;;;;;;;;;8.46;100.00;100288.73;106917;1304;22511;-50
2024/02/23 12:31:23;;;;;;;;;;;;;;;8.52;99.77;100284.79;107100;1311;22472;-57
2024/02/23 12:33:50;;;;;;;;;;;;;;;8.57;99.42;100288.13;107063;1304;22576;-59
2024/02/23 12:36:20;;;;;;;;;;;;;;;8.62;99.19;100288.84;107079;1310;22538;-52
2024/02/23 12:38:47;;;;;;;;;;;;;;;8.65;99.16;100289.74;107060;1311;22511;-51
2024/02/23 12:41:17;;;;;;;;;;;;;;;8.68;98.65;100289.07;107135;1311;22540;-56
2024/02/23 12:43:44;;;;;;;;;;;;;;;8.68;98.86;100284.72;107101;1311;22648;-50
2024/02/23 12:46:15;;;;;;;;;;;;;;;8.69;98.43;100287.35;106970;1309;22578;-59
2024/02/23 12:48:42;;;;;;;;;;;;;;;8.73;98.40;100288.23;107059;1307;22480;-58
2024/02/23 12:51:10;;;;;;;;;;;;;;;8.78;98.81;100282.36;106981;1312;22520;-57
2024/02/23 12:53:39;;;;;;;;;;;;;;;8.83;98.25;100277.20;106952;1307;22491;-59
2024/02/23 12:56:25;;;;;;;;;;;;;;;8.86;97.06;100275.29;107055;1306;23842;-51
2024/02/23 12:59:13;;;;;;;;;;;;;;;8.87;95.83;100273.20;106618;1306;22512;-57
2024/02/23 13:01:47;;;;;;;;;;;;;;;8.87;95.35;100265.38;106991;1304;22588;-54
2024/02/23 13:04:26;;;;;;;;;;;;;;;8.88;95.12;100270.26;106689;1309;22571;-56
2024/02/23 13:06:58;;;;;;;;;;;;;;;8.89;95.46;100263.84;106943;1306;22564;-55
2024/02/23 13:09:39;;;;;;;;;;;;;;;8.96;95.60;100269.09;106843;1306;22667;-61
2024/02/23 13:12:12;;;;;;;;;;;;;;;9.02;95.46;100266.52;106725;1306;22554;-59
2024/02/23 13:14:58;;;;;;;;;;;;;;;9.06;94.56;100266.73;107550;1296;22518;31
2024/02/23 13:17:27;;;;;;;;;;;;;;;9.10;94.12;100257.15;106789;1309;23444;-56
2024/02/23 13:20:02;;;;;;;;;;;;;;;9.12;93.96;100261.54;106795;1310;22500;-55
2024/02/23 13:22:38;;;;;;;;;;;;;;;9.14;93.87;100260.84;106821;1313;23372;-54
2024/02/23 13:25:06;;;;;;;;;;;;;;;9.16;93.31;100258.77;106791;1312;22531;-53
2024/02/23 13:27:33;;;;;;;;;;;;;;;9.16;93.05;100256.33;107025;1312;22470;-56
2024/02/23 13:30:09;;;;;;;;;;;;;;;9.14;92.67;100259.27;106989;1306;22479;-56
2024/02/23 13:32:37;;;;;;;;;;;;;;;9.13;92.85;100265.54;107056;1306;22484;-53
2024/02/23 13:35:06;;;;;;;;;;;;;;;9.13;92.62;100264.31;107053;1305;22512;-54
2024/02/23 13:37:34;;;;;;;;;;;;;;;9.13;92.17;100262.92;107049;1307;22484;-54
2024/02/23 13:40:01;;;;;;;;;;;;;;;9.12;92.15;100266.75;106973;1306;22493;-57
2024/02/23 13:42:38;;;;;;;;;;;;;;;9.13;92.08;100271.63;106916;1308;22562;-59
2024/02/23 13:45:16;;;;;;;;;;;;;;;9.13;91.60;100277.89;106933;1312;22491;-51
2024/02/23 13:47:45;;;;;;;;;;;;;;;9.15;91.11;100272.84;106843;1310;23288;-57
2024/02/23 13:50:13;;;;;;;;;;;;;;;9.16;90.56;100271.64;106812;1309;22549;-51
2024/02/23 13:52:49;;;;;;;;;;;;;;;9.17;90.75;100279.66;107087;1313;22440;-50
2024/02/23 13:55:20;;;;;;;;;;;;;;;9.17;90.28;100273.58;106988;1313;22539;-57
2024/02/23 13:57:48;;;;;;;;;;;;;;;9.18;90.13;100280.70;107087;1307;22495;-50
2024/02/23 14:00:21;;;;;;;;;;;;;;;9.18;90.00;100280.36;106905;1312;22536;-58
2024/02/23 14:02:49;;;;;;;;;;;;;;;9.18;90.38;100284.36;106919;1312;23182;-50
2024/02/23 14:05:36;;;;;;;;;;;;;;;9.19;90.51;100283.14;106976;1311;22554;-57
2024/02/23 14:08:04;;;;;;;;;;;;;;;9.20;90.82;100277.05;106964;1309;22468;-47
2024/02/23 14:10:40;;;;;;;;;;;;;;;9.18;91.20;100276.19;106911;1313;22451;-57
2024/02/23 14:13:11;;;;;;;;;;;;;;;9.15;91.37;100275.98;107139;1307;22546;-56
2024/02/23 14:15:40;;;;;;;;;;;;;;;9.12;91.51;100280.33;106936;1307;22482;-55
2024/02/23 14:18:09;;;;;;;;;;;;;;;9.08;92.09;100280.64;107119;1312;22482;-55
2024/02/23 14:20:36;;;;;;;;;;;;;;;9.04;92.51;100283.06;107022;1312;22505;-47
2024/02/23 14:23:04;;;;;;;;;;;;;;;9.01;92.69;100289.83;106961;1312;22469;-51
2024/02/23 14:25:32;;;;;;;;;;;;;;;8.96;92.65;100290.67;106951;1313;23406;-57
2024/02/23 14:28:01;;;;;;;;;;;;;;;8.94;92.35;100296.92;106931;1313;23398;-48
2024/02/23 14:30:29;;;;;;;;;;;;;;;8.92;92.31;100299.14;107023;1309;22569;-57
2024/02/23 14:32:59;;;;;;;;;;;;;;;8.89;92.49;100294.63;107103;1306;22503;-50
2024/02/23 14:35:35;;;;;;;;;;;;;;;8.87;92.70;100299.99;106984;1309;23106;-55
2024/02/23 14:38:03;;;;;;;;;;;;;;;8.86;92.97;100306.94;107069;1308;22515;-56
2024/02/23 14:40:40;;;;;;;;;;;;;;;8.84;93.27;100304.15;107002;1307;22516;-48
2024/02/23 14:43:07;;;;;;;;;;;;;;;8.83;92.92;100309.36;107013;1302;22503;-56
2024/02/23 14:45:36;;;;;;;;;;;;;;;8.82;92.95;100314.23;107065;1309;23218;-51
2024/02/23 14:48:05;;;;;;;;;;;;;;;8.80;92.70;100314.20;107022;1306;22598;-48
2024/02/23 14:50:32;;;;;;;;;;;;;;;8.80;92.37;100311.42;106981;1308;23222;-49
2024/02/23 14:53:00;;;;;;;;;;;;;;;8.80;92.16;100313.16;106950;1312;23277;-49
2024/02/23 14:55:29;;;;;;;;;;;;;;;8.80;92.33;100319.42;107045;1312;23281;-49
2024/02/23 14:57:57;;;;;;;;;;;;;;;8.80;92.26;100317.85;107062;1312;23045;-56
2024/02/23 15:00:29;;;;;;;;;;;;;;;8.80;92.20;100319.77;107047;1312;22490;-56
2024/02/23 15:02:57;;;;;;;;;;;;;;;8.79;92.37;100316.63;107078;1312;23138;-49
2024/02/23 15:05:25;;;;;;;;;;;;;;;8.78;92.38;100322.20;107066;1312;23221;-56
2024/02/23 15:07:59;;;;;;;;;;;;;;;8.77;92.24;100326.02;107069;1309;22541;-56
2024/02/23 15:10:28;;;;;;;;;;;;;;;8.77;92.29;100330.36;107041;1312;22498;-56
2024/02/23 15:12:59;;;;;;;;;;;;;;;8.75;92.19;100327.21;107086;1305;23400;-56
2024/02/23 15:15:32;;;;;;;;;;;;;;;8.75;91.74;100331.56;107121;1312;22465;-56
2024/02/23 15:18:00;;;;;;;;;;;;;;;8.76;91.51;100322.53;107035;1312;22487;-56
2024/02/23 15:20:28;;;;;;;;;;;;;;;8.76;91.47;100332.61;107139;1312;22441;-49
2024/02/23 15:22:57;;;;;;;;;;;;;;;8.75;91.60;100334.17;107080;1309;22445;-56
